createdAt,value
2018-02-03T00:01:45.920Z,47.70
2018-02-03T00:04:14.012Z,52.25
2018-02-03T00:06:41.207Z,51.78
2018-02-03T00:09:08.043Z,59.20
2018-02-03T00:11:34.858Z,74.78
2018-02-03T00:14:01.996Z,62.25
2018-02-03T00:16:28.853Z,55.13
2018-02-03T00:18:55.740Z,60.93
2018-02-03T00:21:22.585Z,62.30
2018-02-03T00:23:49.462Z,60.60
2018-02-03T00:26:16.322Z,55.53
2018-02-03T00:28:43.166Z,58.60
2018-02-03T00:31:10.236Z,58.67
2018-02-03T00:33:37.076Z,66.30
2018-02-03T00:36:04.235Z,81.05
2018-02-03T00:38:31.346Z,68.80
2018-02-03T00:40:58.200Z,103.62
2018-02-03T00:43:25.344Z,68.00
2018-02-03T00:45:52.174Z,69.43
2018-02-03T00:48:19.017Z,68.93
2018-02-03T00:50:46.180Z,62.15
2018-02-03T00:53:13.040Z,55.33
2018-02-03T00:55:39.887Z,44.42
2018-02-03T00:58:06.761Z,33.53
2018-02-03T01:00:33.574Z,35.50
2018-02-03T01:03:00.407Z,32.60
2018-02-03T01:05:27.261Z,29.95
2018-02-03T01:07:54.138Z,33.58
2018-02-03T01:10:21.229Z,31.67
2018-02-03T01:12:48.384Z,46.80
2018-02-03T01:15:15.532Z,28.10
2018-02-03T01:17:42.351Z,24.67
2018-02-03T01:20:09.183Z,20.75
2018-02-03T01:22:36.016Z,21.98
2018-02-03T01:25:02.860Z,19.25
2018-02-03T01:27:29.686Z,19.05
2018-02-03T01:29:56.519Z,17.70
2018-02-03T01:32:23.343Z,19.58
2018-02-03T01:34:50.166Z,16.25
2018-02-03T01:37:17.029Z,17.85
2018-02-03T01:39:43.944Z,16.95
2018-02-03T01:42:10.778Z,16.50
2018-02-03T01:44:37.586Z,16.90
2018-02-03T01:47:04.394Z,17.10
2018-02-03T01:49:31.268Z,21.77
2018-02-03T01:51:58.141Z,25.88
2018-02-03T01:54:24.995Z,23.75
2018-02-03T01:56:51.798Z,22.67
2018-02-03T01:59:18.708Z,23.70
2018-02-03T02:01:45.595Z,26.40
2018-02-03T02:04:12.471Z,32.13
2018-02-03T02:06:39.543Z,27.95
2018-02-03T02:09:06.392Z,30.75
2018-02-03T02:11:33.281Z,25.58
2018-02-03T02:14:00.164Z,25.67
2018-02-03T02:16:27.049Z,25.75
2018-02-03T02:18:53.898Z,22.30
2018-02-03T02:21:20.752Z,22.62
2018-02-03T02:23:47.590Z,26.73
2018-02-03T02:26:14.432Z,24.12
2018-02-03T02:28:41.647Z,25.40
2018-02-03T02:31:08.488Z,24.40
2018-02-03T02:33:35.645Z,25.50
2018-02-03T02:36:02.499Z,25.70
2018-02-03T02:38:29.314Z,24.80
2018-02-03T02:40:56.155Z,21.80
2018-02-03T02:43:22.991Z,19.70
2018-02-03T02:45:49.848Z,22.67
2018-02-03T02:48:16.696Z,22.75
2018-02-03T02:50:43.842Z,19.00
2018-02-03T02:53:10.733Z,19.85
2018-02-03T02:55:37.574Z,19.85
2018-02-03T02:58:04.687Z,20.77
2018-02-03T03:00:31.526Z,21.30
2018-02-03T03:02:58.391Z,21.25
2018-02-03T03:05:25.525Z,23.38
2018-02-03T03:07:52.404Z,22.05
2018-02-03T03:10:19.233Z,18.95
2018-02-03T03:12:46.140Z,20.27
2018-02-03T03:15:13.303Z,18.62
2018-02-03T03:17:40.199Z,21.10
2018-02-03T03:20:07.004Z,18.60
2018-02-03T03:22:34.141Z,19.75
2018-02-03T03:25:01.063Z,20.37
2018-02-03T03:27:27.907Z,19.53
2018-02-03T03:29:54.786Z,20.60
2018-02-03T03:32:21.605Z,19.10
2018-02-03T03:34:48.763Z,21.52
2018-02-03T03:37:15.615Z,18.40
2018-02-03T03:39:42.426Z,20.83
2018-02-03T03:42:09.269Z,20.35
2018-02-03T03:44:36.342Z,17.35
2018-02-03T03:47:03.496Z,17.62
2018-02-03T03:49:30.310Z,16.52
2018-02-03T03:51:57.159Z,18.52
2018-02-03T03:54:24.332Z,13.73
2018-02-03T03:56:51.383Z,14.10
2018-02-03T03:59:18.252Z,14.57
2018-02-03T04:01:45.062Z,15.97
2018-02-03T04:04:11.867Z,13.50
2018-02-03T04:06:38.690Z,11.57
2018-02-03T04:09:05.513Z,16.50
2018-02-03T04:11:32.346Z,15.50
2018-02-03T04:13:59.203Z,14.95
2018-02-03T04:16:26.075Z,13.62
2018-02-03T04:18:52.897Z,16.10
2018-02-03T04:21:19.756Z,16.90
2018-02-03T04:23:46.598Z,17.30
2018-02-03T04:26:13.443Z,15.43
2018-02-03T04:28:40.274Z,16.17
2018-02-03T04:31:07.145Z,19.05
2018-02-03T04:33:34.004Z,16.42
2018-02-03T04:36:00.879Z,15.73
2018-02-03T04:38:27.694Z,14.68
2018-02-03T04:40:54.574Z,15.00
2018-02-03T04:43:21.434Z,13.68
2018-02-03T04:45:48.250Z,16.98
2018-02-03T04:48:15.089Z,14.23
2018-02-03T04:50:42.235Z,15.30
2018-02-03T04:53:09.058Z,17.42
2018-02-03T04:55:35.933Z,13.35
2018-02-03T04:58:02.770Z,11.90
2018-02-03T05:00:29.620Z,15.18
2018-02-03T05:02:56.450Z,13.25
2018-02-03T05:05:23.324Z,14.02
2018-02-03T05:07:50.146Z,16.23
2018-02-03T05:10:17.027Z,18.85
2018-02-03T05:12:43.879Z,19.62
2018-02-03T05:15:10.743Z,18.37
2018-02-03T05:17:37.579Z,18.67
2018-02-03T05:20:04.394Z,19.58
2018-02-03T05:22:31.243Z,23.50
2018-02-03T05:24:58.103Z,19.77
2018-02-03T05:27:24.979Z,19.90
2018-02-03T05:29:51.832Z,19.87
2018-02-03T05:32:18.682Z,18.73
2018-02-03T05:34:45.544Z,15.98
2018-02-03T05:37:12.397Z,16.77
2018-02-03T05:39:39.442Z,16.83
2018-02-03T05:42:06.316Z,20.83
2018-02-03T05:44:33.167Z,15.60
2018-02-03T05:47:00.080Z,14.05
2018-02-03T05:49:26.932Z,14.98
2018-02-03T05:51:53.795Z,17.20
2018-02-03T05:54:20.635Z,17.20
2018-02-03T05:56:47.715Z,14.48
2018-02-03T05:59:14.551Z,13.90
2018-02-03T06:01:41.429Z,14.13
2018-02-03T06:04:08.304Z,13.80
2018-02-03T06:06:35.126Z,15.43
2018-02-03T06:09:02.345Z,16.73
2018-02-03T06:11:29.186Z,13.27
2018-02-03T06:13:56.032Z,14.87
2018-02-03T06:16:23.180Z,12.52
2018-02-03T06:18:50.006Z,11.20
2018-02-03T06:21:17.088Z,16.10
2018-02-03T06:23:43.914Z,9.23
2018-02-03T06:26:10.755Z,12.15
2018-02-03T06:28:37.602Z,15.90
2018-02-03T06:31:04.414Z,10.50
2018-02-03T06:33:31.238Z,12.70
2018-02-03T06:35:58.106Z,10.85
2018-02-03T06:38:25.280Z,8.68
2018-02-03T06:40:52.180Z,10.27
2018-02-03T06:43:18.999Z,15.95
2018-02-03T06:45:45.856Z,10.20
2018-02-03T06:48:12.699Z,11.00
2018-02-03T06:50:39.560Z,11.55
2018-02-03T06:53:06.427Z,13.32
2018-02-03T06:55:33.312Z,11.30
2018-02-03T06:58:00.197Z,13.18
2018-02-03T07:00:27.052Z,11.05
2018-02-03T07:02:54.220Z,10.13
2018-02-03T07:05:21.372Z,9.13
2018-02-03T07:07:48.226Z,9.00
2018-02-03T07:10:15.046Z,8.65
2018-02-03T07:12:41.868Z,7.40
2018-02-03T07:15:08.706Z,8.93
2018-02-03T07:17:35.563Z,10.00
2018-02-03T07:20:02.421Z,6.53
2018-02-03T07:22:29.584Z,10.00
2018-02-03T07:24:56.407Z,7.05
2018-02-03T07:27:23.248Z,7.00
2018-02-03T07:29:50.420Z,10.32
2018-02-03T07:32:17.223Z,7.90
2018-02-03T07:34:44.099Z,5.62
2018-02-03T07:37:10.949Z,9.10
2018-02-03T07:39:37.792Z,8.55
2018-02-03T07:42:04.635Z,6.62
2018-02-03T07:44:31.438Z,9.00
2018-02-03T07:46:58.523Z,9.60
2018-02-03T07:49:25.372Z,6.43
2018-02-03T07:51:52.289Z,6.82
2018-02-03T07:54:19.145Z,7.70
2018-02-03T07:56:45.981Z,7.62
2018-02-03T07:59:12.964Z,8.32
2018-02-03T08:01:40.079Z,8.43
2018-02-03T08:04:06.924Z,9.80
2018-02-03T08:06:33.758Z,6.70
2018-02-03T08:10:47.740Z,10.27
2018-02-03T08:13:14.600Z,7.35
2018-02-03T08:15:41.428Z,7.93
2018-02-03T08:18:08.238Z,7.43
2018-02-03T08:20:35.058Z,6.83
2018-02-03T08:23:01.866Z,9.68
2018-02-03T08:25:28.690Z,12.00
2018-02-03T08:27:55.548Z,8.93
2018-02-03T08:30:22.460Z,7.32
2018-02-03T08:32:49.312Z,4.90
2018-02-03T08:35:16.166Z,4.95
2018-02-03T08:37:43.106Z,6.50
2018-02-03T08:40:09.945Z,9.30
2018-02-03T08:42:36.816Z,9.88
2018-02-03T08:45:03.641Z,6.32
2018-02-03T08:47:30.498Z,13.10
2018-02-03T08:49:57.369Z,8.68
2018-02-03T08:52:24.215Z,5.30
2018-02-03T08:54:51.030Z,5.75
2018-02-03T08:57:17.838Z,3.75
2018-02-03T08:59:44.696Z,4.83
2018-02-03T09:02:11.525Z,5.10
2018-02-03T09:04:38.416Z,4.10
2018-02-03T09:07:05.222Z,4.82
2018-02-03T09:09:32.054Z,6.72
2018-02-03T09:12:04.723Z,7.50
2018-02-03T09:14:31.554Z,5.80
2018-02-03T09:16:58.404Z,6.15
2018-02-03T09:19:25.230Z,5.50
2018-02-03T09:21:52.075Z,5.90
2018-02-03T09:24:19.179Z,5.45
2018-02-03T09:26:46.030Z,9.02
2018-02-03T09:29:12.854Z,5.03
2018-02-03T09:31:39.700Z,4.90
2018-02-03T09:34:06.552Z,5.12
2018-02-03T09:36:33.416Z,7.57
2018-02-03T09:39:00.292Z,6.80
2018-02-03T09:41:27.140Z,10.07
2018-02-03T09:43:53.950Z,5.50
2018-02-03T09:46:20.826Z,7.05
2018-02-03T09:48:47.661Z,5.32
2018-02-03T09:51:14.508Z,10.02
2018-02-03T09:53:41.375Z,6.25
2018-02-03T09:56:08.186Z,6.40
2018-02-03T09:58:35.056Z,6.00
2018-02-03T10:01:01.866Z,7.10
2018-02-03T10:03:28.686Z,5.40
2018-02-03T10:05:55.547Z,6.10
2018-02-03T10:08:22.358Z,9.48
2018-02-03T10:10:49.210Z,5.53
2018-02-03T10:13:16.019Z,5.75
2018-02-03T10:15:42.894Z,8.43
2018-02-03T10:18:09.703Z,7.62
2018-02-03T10:20:36.548Z,6.53
2018-02-03T10:23:03.387Z,7.22
2018-02-03T10:25:30.236Z,7.60
2018-02-03T10:27:57.066Z,8.25
2018-02-03T10:30:23.901Z,8.40
2018-02-03T10:32:50.755Z,8.23
2018-02-03T10:35:17.794Z,6.78
2018-02-03T10:37:44.608Z,8.32
2018-02-03T10:40:11.718Z,9.77
2018-02-03T10:42:38.526Z,9.07
2018-02-03T10:45:05.383Z,8.82
2018-02-03T10:47:32.198Z,8.65
2018-02-03T10:49:59.060Z,11.50
2018-02-03T10:52:25.895Z,9.80
2018-02-03T10:54:52.735Z,8.13
2018-02-03T10:57:19.603Z,8.25
2018-02-03T10:59:46.407Z,7.20
2018-02-03T11:02:13.287Z,7.60
2018-02-03T11:04:40.465Z,8.20
2018-02-03T11:07:07.613Z,7.40
2018-02-03T11:09:34.446Z,7.18
2018-02-03T11:12:01.250Z,7.00
2018-02-03T11:14:28.151Z,8.32
2018-02-03T11:16:54.992Z,8.15
2018-02-03T11:19:21.832Z,7.82
2018-02-03T11:21:48.666Z,11.32
2018-02-03T11:24:15.718Z,8.50
2018-02-03T11:26:42.565Z,7.87
2018-02-03T11:29:09.404Z,8.25
2018-02-03T11:31:36.243Z,9.02
2018-02-03T11:34:03.099Z,10.75
2018-02-03T11:36:30.245Z,9.65
2018-02-03T11:38:57.063Z,11.60
2018-02-03T11:41:23.934Z,8.80
2018-02-03T11:43:50.770Z,7.50
2018-02-03T11:46:17.625Z,8.40
2018-02-03T11:48:44.438Z,9.48
2018-02-03T11:51:11.303Z,8.05
2018-02-03T11:53:38.132Z,9.70
2018-02-03T11:56:04.966Z,11.90
2018-02-03T11:58:31.824Z,11.13
2018-02-03T12:00:58.670Z,7.53
2018-02-03T12:03:25.477Z,7.55
2018-02-03T12:05:52.319Z,5.95
2018-02-03T12:08:19.164Z,5.60
2018-02-03T12:10:46.044Z,7.03
2018-02-03T12:13:12.866Z,6.07
2018-02-03T12:15:39.720Z,5.50
2018-02-03T12:18:06.539Z,6.53
2018-02-03T12:20:33.728Z,6.45
2018-02-03T12:23:00.875Z,8.20
2018-02-03T12:25:27.690Z,6.97
2018-02-03T12:27:54.548Z,6.07
2018-02-03T12:30:21.359Z,6.53
2018-02-03T12:32:48.228Z,6.50
2018-02-03T12:35:15.071Z,5.75
2018-02-03T12:37:42.140Z,6.35
2018-02-03T12:40:08.978Z,8.95
2018-02-03T12:42:35.823Z,9.30
2018-02-03T12:45:02.981Z,8.18
2018-02-03T12:47:29.856Z,8.00
2018-02-03T12:49:56.687Z,8.38
2018-02-03T12:52:23.510Z,9.02
2018-02-03T12:54:50.362Z,12.15
2018-02-03T12:57:17.280Z,9.00
2018-02-03T12:59:44.137Z,7.18
2018-02-03T13:02:11.000Z,6.22
2018-02-03T13:04:37.874Z,9.40
2018-02-03T13:07:04.971Z,7.30
2018-02-03T13:09:31.798Z,7.22
2018-02-03T13:11:58.614Z,6.93
2018-02-03T13:14:25.448Z,7.97
2018-02-03T13:16:52.288Z,6.03
2018-02-03T13:19:19.118Z,6.20
2018-02-03T13:21:46.015Z,6.47
2018-02-03T13:24:12.861Z,5.70
2018-02-03T13:26:39.690Z,5.55
2018-02-03T13:29:06.540Z,7.97
2018-02-03T13:31:33.384Z,8.02
2018-02-03T13:34:00.210Z,7.32
2018-02-03T13:36:27.026Z,5.12
2018-02-03T13:38:53.849Z,5.75
2018-02-03T13:41:20.691Z,5.00
2018-02-03T13:43:47.607Z,6.00
2018-02-03T13:46:14.410Z,8.60
2018-02-03T13:48:41.226Z,7.30
2018-02-03T13:51:08.072Z,5.87
2018-02-03T13:53:34.895Z,7.35
2018-02-03T13:56:01.715Z,6.55
2018-02-03T13:58:28.569Z,5.93
2018-02-03T14:00:55.378Z,5.40
2018-02-03T14:03:22.177Z,4.60
2018-02-03T14:05:49.015Z,5.00
2018-02-03T14:08:15.868Z,4.10
2018-02-03T14:10:42.736Z,6.75
2018-02-03T14:13:09.621Z,5.35
2018-02-03T14:15:36.792Z,3.95
2018-02-03T14:18:03.602Z,11.02
2018-02-03T14:20:30.423Z,5.80
2018-02-03T14:22:57.252Z,5.28
2018-02-03T14:25:24.079Z,5.50
2018-02-03T14:27:50.887Z,3.70
2018-02-03T14:30:17.743Z,6.20
2018-02-03T14:32:44.555Z,6.10
2018-02-03T14:35:11.398Z,4.10
2018-02-03T14:37:38.198Z,5.50
2018-02-03T14:40:05.043Z,4.25
2018-02-03T14:42:31.902Z,6.28
2018-02-03T14:44:58.740Z,4.80
2018-02-03T14:47:25.582Z,4.87
2018-02-03T14:49:52.436Z,3.95
2018-02-03T14:52:19.310Z,4.62
2018-02-03T14:54:46.175Z,4.60
2018-02-03T14:57:12.979Z,4.40
2018-02-03T14:59:39.811Z,5.80
2018-02-03T15:02:06.610Z,5.13
2018-02-03T15:04:33.462Z,3.80
2018-02-03T15:07:00.602Z,4.18
2018-02-03T15:09:27.566Z,5.07
2018-02-03T15:11:54.394Z,3.80
2018-02-03T15:14:21.248Z,6.60
2018-02-03T15:16:48.058Z,6.32
2018-02-03T15:19:14.915Z,3.97
2018-02-03T15:21:41.728Z,3.72
2018-02-03T15:24:08.554Z,4.62
2018-02-03T15:26:35.752Z,3.87
2018-02-03T15:29:02.898Z,3.28
2018-02-03T15:31:29.946Z,7.70
2018-02-03T15:33:56.766Z,6.32
2018-02-03T15:36:23.652Z,8.40
2018-02-03T15:38:50.736Z,3.87
2018-02-03T15:41:17.571Z,3.28
2018-02-03T15:43:44.398Z,4.47
2018-02-03T15:46:11.524Z,4.10
2018-02-03T15:48:38.356Z,9.35
2018-02-03T15:51:05.182Z,5.15
2018-02-03T15:53:32.021Z,3.37
2018-02-03T15:55:58.916Z,4.27
2018-02-03T15:58:25.727Z,3.67
2018-02-03T16:00:52.558Z,3.30
2018-02-03T16:03:19.636Z,7.85
2018-02-03T16:05:46.472Z,3.60
2018-02-03T16:08:13.302Z,4.62
2018-02-03T16:10:40.464Z,3.72
2018-02-03T16:13:07.268Z,3.40
2018-02-03T16:15:34.123Z,3.20
2018-02-03T16:18:00.951Z,2.65
2018-02-03T16:20:27.835Z,5.93
2018-02-03T16:22:54.623Z,4.03
2018-02-03T16:25:21.434Z,3.20
2018-02-03T16:27:48.295Z,3.45
2018-02-03T16:30:15.172Z,4.65
2018-02-03T16:32:42.009Z,3.22
2018-02-03T16:35:08.856Z,3.10
2018-02-03T16:37:35.693Z,3.00
2018-02-03T16:40:02.551Z,2.92
2018-02-03T16:42:29.436Z,5.15
2018-02-03T16:44:56.262Z,3.20
2018-02-03T16:47:23.071Z,4.47
2018-02-03T16:49:49.886Z,3.07
2018-02-03T16:52:16.694Z,3.17
2018-02-03T16:54:43.523Z,2.53
2018-02-03T16:57:10.369Z,2.33
2018-02-03T16:59:37.535Z,2.35
2018-02-03T17:02:04.380Z,3.00
2018-02-03T17:04:31.230Z,3.90
2018-02-03T17:06:58.372Z,2.20
2018-02-03T17:09:25.182Z,4.25
2018-02-03T17:11:52.007Z,3.30
2018-02-03T17:14:19.154Z,2.90
2018-02-03T17:16:45.987Z,4.10
2018-02-03T17:19:12.810Z,2.60
2018-02-03T17:21:39.660Z,2.80
2018-02-03T17:24:06.478Z,3.73
2018-02-03T17:26:33.287Z,3.20
2018-02-03T17:29:00.154Z,3.40
2018-02-03T17:31:26.967Z,4.20
2018-02-03T17:33:53.819Z,4.40
2018-02-03T17:36:20.702Z,3.62
2018-02-03T17:38:47.555Z,4.00
2018-02-03T17:41:14.688Z,4.57
2018-02-03T17:43:41.510Z,4.12
2018-02-03T17:46:08.396Z,3.40
2018-02-03T17:48:35.219Z,4.00
2018-02-03T17:51:02.088Z,3.15
2018-02-03T17:53:28.932Z,4.25
2018-02-03T17:55:55.780Z,4.20
2018-02-03T17:58:22.599Z,4.00
2018-02-03T18:00:49.435Z,3.90
2018-02-03T18:03:16.315Z,3.70
2018-02-03T18:05:43.135Z,4.15
2018-02-03T18:08:09.989Z,4.00
2018-02-03T18:10:37.112Z,2.97
2018-02-03T18:13:03.930Z,3.70
2018-02-03T18:15:30.758Z,3.10
2018-02-03T18:17:57.610Z,3.03
2018-02-03T18:20:24.444Z,4.05
2018-02-03T18:22:51.307Z,2.90
2018-02-03T18:25:18.129Z,3.00
2018-02-03T18:27:44.982Z,3.75
2018-02-03T18:30:11.787Z,3.70
2018-02-03T18:32:38.681Z,4.22
2018-02-03T18:35:05.528Z,4.60
2018-02-03T18:37:32.376Z,4.80
2018-02-03T18:39:59.202Z,4.20
2018-02-03T18:42:26.048Z,4.15
2018-02-03T18:44:52.886Z,3.92
2018-02-03T18:47:19.736Z,4.00
2018-02-03T18:49:46.542Z,3.78
2018-02-03T18:52:13.410Z,3.58
2018-02-03T18:54:40.219Z,3.83
2018-02-03T18:57:07.046Z,4.87
2018-02-03T18:59:34.175Z,4.03
2018-02-03T19:02:01.055Z,4.18
2018-02-03T19:04:27.915Z,3.80
2018-02-03T19:06:55.015Z,5.17
2018-02-03T19:09:21.848Z,3.83
2018-02-03T19:11:49.011Z,4.37
2018-02-03T19:14:15.870Z,4.05
2018-02-03T19:16:42.754Z,5.57
2018-02-03T19:19:09.603Z,4.05
2018-02-03T19:21:36.403Z,5.80
2018-02-03T19:24:03.223Z,4.78
2018-02-03T19:26:30.048Z,4.70
2018-02-03T19:28:56.904Z,5.63
2018-02-03T19:31:23.715Z,5.47
2018-02-03T19:33:50.672Z,5.87
2018-02-03T19:36:17.532Z,5.70
2018-02-03T19:38:44.376Z,5.40
2018-02-03T19:41:11.191Z,5.15
2018-02-03T19:43:38.036Z,5.90
2018-02-03T19:46:04.908Z,6.93
2018-02-03T19:48:31.782Z,9.63
2018-02-03T19:50:58.617Z,14.77
2018-02-03T19:53:25.475Z,8.27
2018-02-03T19:55:52.326Z,7.10
2018-02-03T19:58:19.439Z,6.55
2018-02-03T20:00:46.303Z,6.53
2018-02-03T20:03:13.150Z,17.75
2018-02-03T20:05:40.055Z,64.80
2018-02-03T20:08:06.899Z,47.25
2018-02-03T20:10:33.788Z,22.25
2018-02-03T20:13:00.674Z,46.53
2018-02-03T20:15:27.529Z,11.60
2018-02-03T20:17:54.608Z,7.85
2018-02-03T20:20:21.464Z,8.10
2018-02-03T20:22:48.301Z,7.55
2018-02-03T20:25:15.180Z,7.87
2018-02-03T20:27:42.284Z,9.00
2018-02-03T20:30:09.148Z,7.78
2018-02-03T20:32:35.980Z,9.57
2018-02-03T20:35:02.794Z,9.60
2018-02-03T20:37:29.663Z,9.60
2018-02-03T20:39:56.502Z,8.70
2018-02-03T20:42:23.323Z,10.40
2018-02-03T20:44:50.131Z,9.70
2018-02-03T20:47:17.322Z,10.70
2018-02-03T20:49:44.180Z,10.10
2018-02-03T20:52:10.999Z,18.85
2018-02-03T20:54:37.850Z,31.35
2018-02-03T20:57:04.662Z,29.35
2018-02-03T20:59:31.507Z,17.52
2018-02-03T21:01:58.355Z,14.10
2018-02-03T21:04:25.204Z,12.30
2018-02-03T21:06:52.031Z,10.87
2018-02-03T21:09:18.884Z,10.40
2018-02-03T21:11:45.788Z,17.45
2018-02-03T21:14:12.607Z,10.75
2018-02-03T21:16:39.462Z,11.52
2018-02-03T21:19:06.319Z,11.25
2018-02-03T21:21:33.167Z,10.60
2018-02-03T21:24:00.009Z,11.75
2018-02-03T21:26:26.854Z,9.95
2018-02-03T21:28:53.690Z,11.30
2018-02-03T21:31:20.587Z,12.63
2018-02-03T21:33:47.757Z,12.52
2018-02-03T21:36:14.591Z,12.18
2018-02-03T21:38:41.411Z,12.20
2018-02-03T21:41:08.281Z,12.82
2018-02-03T21:43:35.110Z,13.90
2018-02-03T21:46:01.960Z,12.20
2018-02-03T21:48:28.786Z,12.57
2018-02-03T21:50:55.973Z,12.90
2018-02-03T21:53:22.831Z,13.98
2018-02-03T21:55:49.661Z,16.10
2018-02-03T21:58:16.500Z,15.38
2018-02-03T22:00:43.346Z,13.18
2018-02-03T22:03:10.211Z,22.80
2018-02-03T22:05:37.118Z,18.50
2018-02-03T22:08:03.939Z,18.75
2018-02-03T22:10:30.767Z,15.75
2018-02-03T22:12:57.963Z,14.40
2018-02-03T22:15:24.819Z,16.05
2018-02-03T22:17:51.650Z,14.05
2018-02-03T22:20:18.471Z,15.68
2018-02-03T22:22:45.315Z,13.30
2018-02-03T22:25:12.131Z,14.45
2018-02-03T22:27:39.336Z,12.10
2018-02-03T22:30:06.480Z,14.68
2018-02-03T22:32:33.335Z,17.70
2018-02-03T22:35:00.178Z,16.95
2018-02-03T22:37:27.026Z,21.95
2018-02-03T22:39:53.927Z,13.55
2018-02-03T22:42:20.776Z,12.68
2018-02-03T22:44:47.648Z,12.82
2018-02-03T22:47:14.507Z,11.23
2018-02-03T22:49:41.319Z,11.75
2018-02-03T22:52:08.175Z,12.75
2018-02-03T22:54:35.024Z,11.90
2018-02-03T22:57:01.908Z,14.10
2018-02-03T22:59:28.761Z,14.73
2018-02-03T23:01:55.600Z,14.02
2018-02-03T23:04:22.425Z,15.80
2018-02-03T23:06:49.255Z,13.98
2018-02-03T23:09:16.087Z,14.10
2018-02-03T23:11:42.906Z,17.00
2018-02-03T23:14:09.771Z,14.73
2018-02-03T23:16:36.620Z,15.77
2018-02-03T23:19:03.480Z,16.30
2018-02-03T23:21:30.340Z,16.55
2018-02-03T23:23:57.212Z,16.12
2018-02-03T23:26:24.059Z,16.02
2018-02-03T23:28:50.887Z,15.90
2018-02-03T23:31:17.759Z,16.00
2018-02-03T23:33:44.575Z,16.93
2018-02-03T23:36:11.443Z,16.87
2018-02-03T23:38:38.263Z,16.58
2018-02-03T23:41:05.090Z,52.42
2018-02-03T23:43:31.940Z,35.03
2018-02-03T23:45:58.813Z,27.50
2018-02-03T23:48:25.690Z,30.58
2018-02-03T23:50:52.552Z,28.23
2018-02-03T23:53:19.480Z,29.02
2018-02-03T23:55:46.327Z,22.80
2018-02-03T23:58:13.158Z,18.58
